sensor_id;sensor_type;location;lat;lon;timestamp;temperature;humidity
2897;DHT22;1458;49.728;9.228;2023-10-09T00:01:44;12.70;99.90
2897;DHT22;1458;49.728;9.228;2023-10-09T00:04:12;12.70;99.90
2897;DHT22;1458;49.728;9.228;2023-10-09T00:06:41;12.70;99.90
2897;DHT22;1458;49.728;9.228;2023-10-09T00:09:10;12.60;99.90
2897;DHT22;1458;49.728;9.228;2023-10-09T00:11:56;12.50;99.90
2897;DHT22;1458;49.728;9.228;2023-10-09T00:14:26;12.60;99.90
2897;DHT22;1458;49.728;9.228;2023-10-09T00:16:57;12.50;99.90
2897;DHT22;1458;49.728;9.228;2023-10-09T00:19:44;12.40;99.90
2897;DHT22;1458;49.728;9.228;2023-10-09T00:22:14;12.40;99.90
2897;DHT22;1458;49.728;9.228;2023-10-09T00:24:58;12.40;99.90
2897;DHT22;1458;49.728;9.228;2023-10-09T00:27:39;12.40;99.90
2897;DHT22;1458;49.728;9.228;2023-10-09T00:30:10;12.40;99.90
2897;DHT22;1458;49.728;9.228;2023-10-09T00:32:42;12.30;99.90
2897;DHT22;1458;49.728;9.228;2023-10-09T00:35:17;12.30;99.90
2897;DHT22;1458;49.728;9.228;2023-10-09T00:38:06;12.30;99.90
2897;DHT22;1458;49.728;9.228;2023-10-09T00:40:51;12.20;99.90
2897;DHT22;1458;49.728;9.228;2023-10-09T00:43:35;12.20;99.90
2897;DHT22;1458;49.728;9.228;2023-10-09T00:46:05;12.20;99.90
2897;DHT22;1458;49.728;9.228;2023-10-09T00:48:39;12.30;99.90
2897;DHT22;1458;49.728;9.228;2023-10-09T00:51:07;12.40;99.90
2897;DHT22;1458;49.728;9.228;2023-10-09T00:53:44;12.40;99.90
2897;DHT22;1458;49.728;9.228;2023-10-09T00:56:16;12.50;99.90
2897;DHT22;1458;49.728;9.228;2023-10-09T00:58:58;12.50;99.90
2897;DHT22;1458;49.728;9.228;2023-10-09T01:01:34;12.40;99.90
2897;DHT22;1458;49.728;9.228;2023-10-09T01:04:04;12.40;99.90
2897;DHT22;1458;49.728;9.228;2023-10-09T01:06:35;12.30;99.90
2897;DHT22;1458;49.728;9.228;2023-10-09T01:09:10;12.40;99.90
2897;DHT22;1458;49.728;9.228;2023-10-09T01:11:38;12.40;99.90
2897;DHT22;1458;49.728;9.228;2023-10-09T01:14:14;12.40;99.90
2897;DHT22;1458;49.728;9.228;2023-10-09T01:16:42;12.30;99.90
2897;DHT22;1458;49.728;9.228;2023-10-09T01:19:11;12.30;99.90
2897;DHT22;1458;49.728;9.228;2023-10-09T01:21:50;12.20;99.90
2897;DHT22;1458;49.728;9.228;2023-10-09T01:24:19;12.30;99.90
2897;DHT22;1458;49.728;9.228;2023-10-09T01:26:48;12.30;99.90
2897;DHT22;1458;49.728;9.228;2023-10-09T01:29:20;12.30;99.90
2897;DHT22;1458;49.728;9.228;2023-10-09T01:31:50;12.30;99.90
2897;DHT22;1458;49.728;9.228;2023-10-09T01:34:21;12.30;99.90
2897;DHT22;1458;49.728;9.228;2023-10-09T01:37:05;12.20;99.90
2897;DHT22;1458;49.728;9.228;2023-10-09T01:39:40;12.20;99.90
2897;DHT22;1458;49.728;9.228;2023-10-09T01:42:08;12.30;99.90
2897;DHT22;1458;49.728;9.228;2023-10-09T01:44:36;12.30;99.90
2897;DHT22;1458;49.728;9.228;2023-10-09T01:47:09;12.30;99.90
2897;DHT22;1458;49.728;9.228;2023-10-09T01:49:40;12.30;99.90
2897;DHT22;1458;49.728;9.228;2023-10-09T01:52:10;12.30;99.90
2897;DHT22;1458;49.728;9.228;2023-10-09T01:54:43;12.20;99.90
2897;DHT22;1458;49.728;9.228;2023-10-09T01:57:14;12.30;99.90
2897;DHT22;1458;49.728;9.228;2023-10-09T01:59:48;12.30;99.90
2897;DHT22;1458;49.728;9.228;2023-10-09T02:02:19;12.40;99.90
2897;DHT22;1458;49.728;9.228;2023-10-09T02:04:53;12.40;99.90
2897;DHT22;1458;49.728;9.228;2023-10-09T02:07:32;12.30;99.90
2897;DHT22;1458;49.728;9.228;2023-10-09T02:10:10;12.40;99.90
2897;DHT22;1458;49.728;9.228;2023-10-09T02:12:47;12.40;99.90
2897;DHT22;1458;49.728;9.228;2023-10-09T02:15:19;12.30;99.90
2897;DHT22;1458;49.728;9.228;2023-10-09T02:18:06;12.30;99.90
2897;DHT22;1458;49.728;9.228;2023-10-09T02:20:44;12.20;99.90
2897;DHT22;1458;49.728;9.228;2023-10-09T02:23:14;12.20;99.90
2897;DHT22;1458;49.728;9.228;2023-10-09T02:25:44;12.20;99.90
2897;DHT22;1458;49.728;9.228;2023-10-09T02:28:12;12.30;99.90
2897;DHT22;1458;49.728;9.228;2023-10-09T02:30:45;12.30;99.90
2897;DHT22;1458;49.728;9.228;2023-10-09T02:33:14;12.40;99.90
2897;DHT22;1458;49.728;9.228;2023-10-09T02:35:46;12.50;99.90
2897;DHT22;1458;49.728;9.228;2023-10-09T02:38:17;12.40;99.90
2897;DHT22;1458;49.728;9.228;2023-10-09T02:40:51;12.40;99.90
2897;DHT22;1458;49.728;9.228;2023-10-09T02:43:44;12.30;99.90
2897;DHT22;1458;49.728;9.228;2023-10-09T02:46:13;12.40;99.90
2897;DHT22;1458;49.728;9.228;2023-10-09T02:48:43;12.30;99.90
2897;DHT22;1458;49.728;9.228;2023-10-09T02:51:17;12.30;99.90
2897;DHT22;1458;49.728;9.228;2023-10-09T02:53:59;12.30;99.90
2897;DHT22;1458;49.728;9.228;2023-10-09T02:56:36;12.50;99.90
2897;DHT22;1458;49.728;9.228;2023-10-09T02:59:09;12.40;99.90
2897;DHT22;1458;49.728;9.228;2023-10-09T03:01:41;12.40;99.90
2897;DHT22;1458;49.728;9.228;2023-10-09T03:04:08;12.40;99.90
2897;DHT22;1458;49.728;9.228;2023-10-09T03:06:41;12.40;99.90
2897;DHT22;1458;49.728;9.228;2023-10-09T03:09:16;12.40;99.90
2897;DHT22;1458;49.728;9.228;2023-10-09T03:11:47;12.30;99.90
2897;DHT22;1458;49.728;9.228;2023-10-09T03:14:19;12.30;99.90
2897;DHT22;1458;49.728;9.228;2023-10-09T03:16:46;12.30;99.90
2897;DHT22;1458;49.728;9.228;2023-10-09T03:19:15;12.30;99.90
2897;DHT22;1458;49.728;9.228;2023-10-09T03:21:42;12.30;99.90
2897;DHT22;1458;49.728;9.228;2023-10-09T03:24:10;12.30;99.90
2897;DHT22;1458;49.728;9.228;2023-10-09T03:26:38;12.30;99.90
2897;DHT22;1458;49.728;9.228;2023-10-09T03:29:07;12.30;99.90
2897;DHT22;1458;49.728;9.228;2023-10-09T03:31:36;12.20;99.90
2897;DHT22;1458;49.728;9.228;2023-10-09T03:34:04;12.00;99.90
2897;DHT22;1458;49.728;9.228;2023-10-09T03:36:34;12.00;99.90
2897;DHT22;1458;49.728;9.228;2023-10-09T03:39:04;12.00;99.90
2897;DHT22;1458;49.728;9.228;2023-10-09T03:41:44;12.00;99.90
2897;DHT22;1458;49.728;9.228;2023-10-09T03:44:14;11.90;99.90
2897;DHT22;1458;49.728;9.228;2023-10-09T03:46:44;11.80;99.90
2897;DHT22;1458;49.728;9.228;2023-10-09T03:49:11;11.80;99.90
2897;DHT22;1458;49.728;9.228;2023-10-09T03:51:46;12.00;99.90
2897;DHT22;1458;49.728;9.228;2023-10-09T03:54:13;12.10;99.90
2897;DHT22;1458;49.728;9.228;2023-10-09T03:56:41;12.10;99.90
2897;DHT22;1458;49.728;9.228;2023-10-09T03:59:08;12.00;99.90
2897;DHT22;1458;49.728;9.228;2023-10-09T04:01:38;11.90;99.90
2897;DHT22;1458;49.728;9.228;2023-10-09T04:04:05;12.00;99.90
2897;DHT22;1458;49.728;9.228;2023-10-09T04:06:36;11.90;99.90
2897;DHT22;1458;49.728;9.228;2023-10-09T04:09:05;11.90;99.90
2897;DHT22;1458;49.728;9.228;2023-10-09T04:11:54;11.80;99.90
2897;DHT22;1458;49.728;9.228;2023-10-09T04:14:45;11.70;99.90
2897;DHT22;1458;49.728;9.228;2023-10-09T04:17:22;11.60;99.90
2897;DHT22;1458;49.728;9.228;2023-10-09T04:20:06;11.60;99.90
2897;DHT22;1458;49.728;9.228;2023-10-09T04:22:52;11.60;99.90
2897;DHT22;1458;49.728;9.228;2023-10-09T04:25:25;11.70;99.90
2897;DHT22;1458;49.728;9.228;2023-10-09T04:27:55;11.70;99.90
2897;DHT22;1458;49.728;9.228;2023-10-09T04:30:34;11.80;99.90
2897;DHT22;1458;49.728;9.228;2023-10-09T04:33:07;11.70;99.90
2897;DHT22;1458;49.728;9.228;2023-10-09T04:35:54;11.70;99.90
2897;DHT22;1458;49.728;9.228;2023-10-09T04:38:35;11.80;99.90
2897;DHT22;1458;49.728;9.228;2023-10-09T04:41:05;11.90;99.90
2897;DHT22;1458;49.728;9.228;2023-10-09T04:43:34;11.90;99.90
2897;DHT22;1458;49.728;9.228;2023-10-09T04:46:00;11.90;99.90
2897;DHT22;1458;49.728;9.228;2023-10-09T04:48:39;11.80;99.90
2897;DHT22;1458;49.728;9.228;2023-10-09T04:51:11;11.90;99.90
2897;DHT22;1458;49.728;9.228;2023-10-09T04:53:46;12.00;99.90
2897;DHT22;1458;49.728;9.228;2023-10-09T04:56:25;11.90;99.90
2897;DHT22;1458;49.728;9.228;2023-10-09T04:58:57;11.90;99.90
2897;DHT22;1458;49.728;9.228;2023-10-09T05:01:33;12.00;99.90
2897;DHT22;1458;49.728;9.228;2023-10-09T05:04:10;12.00;99.90
2897;DHT22;1458;49.728;9.228;2023-10-09T05:07:01;12.00;99.90
2897;DHT22;1458;49.728;9.228;2023-10-09T05:09:47;12.00;99.90
2897;DHT22;1458;49.728;9.228;2023-10-09T05:12:32;12.00;99.90
2897;DHT22;1458;49.728;9.228;2023-10-09T05:14:58;12.00;99.90
2897;DHT22;1458;49.728;9.228;2023-10-09T05:17:34;12.00;99.90
2897;DHT22;1458;49.728;9.228;2023-10-09T05:20:04;11.90;99.90
2897;DHT22;1458;49.728;9.228;2023-10-09T05:22:49;11.90;99.90
2897;DHT22;1458;49.728;9.228;2023-10-09T05:25:33;11.90;99.90
2897;DHT22;1458;49.728;9.228;2023-10-09T05:28:19;11.90;99.90
2897;DHT22;1458;49.728;9.228;2023-10-09T05:30:56;11.90;99.90
2897;DHT22;1458;49.728;9.228;2023-10-09T05:33:33;11.90;99.90
2897;DHT22;1458;49.728;9.228;2023-10-09T05:36:05;12.10;99.90
2897;DHT22;1458;49.728;9.228;2023-10-09T05:38:57;12.10;99.90
2897;DHT22;1458;49.728;9.228;2023-10-09T05:41:44;12.20;99.90
2897;DHT22;1458;49.728;9.228;2023-10-09T05:44:13;12.20;99.90
2897;DHT22;1458;49.728;9.228;2023-10-09T05:46:58;12.10;99.90
2897;DHT22;1458;49.728;9.228;2023-10-09T05:49:43;12.10;99.90
2897;DHT22;1458;49.728;9.228;2023-10-09T05:52:22;12.10;99.90
2897;DHT22;1458;49.728;9.228;2023-10-09T05:54:58;12.10;99.90
2897;DHT22;1458;49.728;9.228;2023-10-09T05:58:06;12.10;99.90
2897;DHT22;1458;49.728;9.228;2023-10-09T06:01:05;12.20;99.90
2897;DHT22;1458;49.728;9.228;2023-10-09T06:03:47;12.10;99.90
2897;DHT22;1458;49.728;9.228;2023-10-09T06:06:21;12.20;99.90
2897;DHT22;1458;49.728;9.228;2023-10-09T06:09:10;12.30;99.90
2897;DHT22;1458;49.728;9.228;2023-10-09T06:12:01;12.30;99.90
2897;DHT22;1458;49.728;9.228;2023-10-09T06:14:45;12.30;99.90
2897;DHT22;1458;49.728;9.228;2023-10-09T06:17:24;12.40;99.90
2897;DHT22;1458;49.728;9.228;2023-10-09T06:19:53;12.60;99.90
2897;DHT22;1458;49.728;9.228;2023-10-09T06:22:37;12.60;99.90
2897;DHT22;1458;49.728;9.228;2023-10-09T06:25:23;12.70;99.90
2897;DHT22;1458;49.728;9.228;2023-10-09T06:27:58;12.70;99.90
2897;DHT22;1458;49.728;9.228;2023-10-09T06:30:27;12.80;99.90
2897;DHT22;1458;49.728;9.228;2023-10-09T06:32:54;12.80;99.90
2897;DHT22;1458;49.728;9.228;2023-10-09T06:35:34;12.90;99.90
2897;DHT22;1458;49.728;9.228;2023-10-09T06:38:01;12.90;99.90
2897;DHT22;1458;49.728;9.228;2023-10-09T06:40:53;12.90;99.90
2897;DHT22;1458;49.728;9.228;2023-10-09T06:43:38;13.00;99.90
2897;DHT22;1458;49.728;9.228;2023-10-09T06:46:16;12.90;99.90
2897;DHT22;1458;49.728;9.228;2023-10-09T06:49:01;12.90;99.90
2897;DHT22;1458;49.728;9.228;2023-10-09T06:51:49;12.90;99.90
2897;DHT22;1458;49.728;9.228;2023-10-09T06:54:21;13.00;99.90
2897;DHT22;1458;49.728;9.228;2023-10-09T06:56:53;13.00;99.90
2897;DHT22;1458;49.728;9.228;2023-10-09T06:59:37;13.00;99.90
2897;DHT22;1458;49.728;9.228;2023-10-09T07:02:25;13.20;99.90
2897;DHT22;1458;49.728;9.228;2023-10-09T07:04:52;13.20;99.90
2897;DHT22;1458;49.728;9.228;2023-10-09T07:07:21;13.40;99.90
2897;DHT22;1458;49.728;9.228;2023-10-09T07:09:51;13.40;99.90
2897;DHT22;1458;49.728;9.228;2023-10-09T07:12:38;13.40;99.90
2897;DHT22;1458;49.728;9.228;2023-10-09T07:15:10;13.70;99.90
2897;DHT22;1458;49.728;9.228;2023-10-09T07:17:54;13.70;99.90
2897;DHT22;1458;49.728;9.228;2023-10-09T07:20:42;13.70;99.90
2897;DHT22;1458;49.728;9.228;2023-10-09T07:23:22;13.80;99.90
2897;DHT22;1458;49.728;9.228;2023-10-09T07:26:02;13.80;99.90
2897;DHT22;1458;49.728;9.228;2023-10-09T07:28:46;13.90;99.90
2897;DHT22;1458;49.728;9.228;2023-10-09T07:31:18;14.00;99.90
2897;DHT22;1458;49.728;9.228;2023-10-09T07:33:53;14.00;99.90
2897;DHT22;1458;49.728;9.228;2023-10-09T07:36:24;14.00;99.90
2897;DHT22;1458;49.728;9.228;2023-10-09T07:39:04;14.30;99.90
2897;DHT22;1458;49.728;9.228;2023-10-09T07:41:42;14.40;99.90
2897;DHT22;1458;49.728;9.228;2023-10-09T07:44:28;14.40;99.90
2897;DHT22;1458;49.728;9.228;2023-10-09T07:47:04;14.50;99.90
2897;DHT22;1458;49.728;9.228;2023-10-09T07:49:43;14.50;99.90
2897;DHT22;1458;49.728;9.228;2023-10-09T07:52:15;14.70;99.90
2897;DHT22;1458;49.728;9.228;2023-10-09T07:54:43;14.90;99.90
2897;DHT22;1458;49.728;9.228;2023-10-09T07:57:20;15.00;99.90
2897;DHT22;1458;49.728;9.228;2023-10-09T07:59:56;14.80;99.90
2897;DHT22;1458;49.728;9.228;2023-10-09T08:02:38;15.00;99.90
2897;DHT22;1458;49.728;9.228;2023-10-09T08:05:07;15.10;99.90
2897;DHT22;1458;49.728;9.228;2023-10-09T08:07:45;15.10;99.90
2897;DHT22;1458;49.728;9.228;2023-10-09T08:10:23;15.20;99.90
2897;DHT22;1458;49.728;9.228;2023-10-09T08:13:08;15.30;99.90
2897;DHT22;1458;49.728;9.228;2023-10-09T08:16:03;15.50;99.90
2897;DHT22;1458;49.728;9.228;2023-10-09T08:18:30;15.70;99.90
2897;DHT22;1458;49.728;9.228;2023-10-09T08:20:57;15.60;99.90
2897;DHT22;1458;49.728;9.228;2023-10-09T08:23:42;15.80;99.90
2897;DHT22;1458;49.728;9.228;2023-10-09T08:26:16;15.90;99.90
2897;DHT22;1458;49.728;9.228;2023-10-09T08:28:55;16.00;99.90
2897;DHT22;1458;49.728;9.228;2023-10-09T08:31:43;16.20;99.90
2897;DHT22;1458;49.728;9.228;2023-10-09T08:34:14;16.30;99.90
2897;DHT22;1458;49.728;9.228;2023-10-09T08:36:51;16.20;99.90
2897;DHT22;1458;49.728;9.228;2023-10-09T08:39:18;16.10;99.90
2897;DHT22;1458;49.728;9.228;2023-10-09T08:41:51;16.10;99.80
2897;DHT22;1458;49.728;9.228;2023-10-09T08:44:20;16.30;99.90
2897;DHT22;1458;49.728;9.228;2023-10-09T08:46:53;16.50;99.40
2897;DHT22;1458;49.728;9.228;2023-10-09T08:49:23;16.70;98.00
2897;DHT22;1458;49.728;9.228;2023-10-09T08:51:51;16.80;98.60
2897;DHT22;1458;49.728;9.228;2023-10-09T08:54:19;17.00;99.00
2897;DHT22;1458;49.728;9.228;2023-10-09T08:56:47;17.20;98.00
2897;DHT22;1458;49.728;9.228;2023-10-09T08:59:18;17.30;97.10
2897;DHT22;1458;49.728;9.228;2023-10-09T09:01:46;17.50;97.00
2897;DHT22;1458;49.728;9.228;2023-10-09T09:04:39;17.40;96.90
2897;DHT22;1458;49.728;9.228;2023-10-09T09:07:27;17.40;97.10
2897;DHT22;1458;49.728;9.228;2023-10-09T09:09:57;17.40;97.30
2897;DHT22;1458;49.728;9.228;2023-10-09T09:12:30;17.30;98.30
2897;DHT22;1458;49.728;9.228;2023-10-09T09:15:04;17.30;98.40
2897;DHT22;1458;49.728;9.228;2023-10-09T09:17:46;17.20;98.50
2897;DHT22;1458;49.728;9.228;2023-10-09T09:20:24;17.30;99.60
2897;DHT22;1458;49.728;9.228;2023-10-09T09:22:55;17.20;99.10
2897;DHT22;1458;49.728;9.228;2023-10-09T09:25:23;17.40;98.80
2897;DHT22;1458;49.728;9.228;2023-10-09T09:27:52;17.50;98.10
2897;DHT22;1458;49.728;9.228;2023-10-09T09:30:24;17.60;98.40
2897;DHT22;1458;49.728;9.228;2023-10-09T09:32:57;17.70;98.10
2897;DHT22;1458;49.728;9.228;2023-10-09T09:35:57;17.80;98.40
2897;DHT22;1458;49.728;9.228;2023-10-09T09:38:28;17.90;98.30
2897;DHT22;1458;49.728;9.228;2023-10-09T09:41:01;18.00;97.90
2897;DHT22;1458;49.728;9.228;2023-10-09T09:43:31;18.00;98.10
2897;DHT22;1458;49.728;9.228;2023-10-09T09:46:01;18.10;96.90
2897;DHT22;1458;49.728;9.228;2023-10-09T09:48:38;18.20;95.10
2897;DHT22;1458;49.728;9.228;2023-10-09T09:51:12;18.30;94.70
2897;DHT22;1458;49.728;9.228;2023-10-09T09:53:41;18.40;92.90
2897;DHT22;1458;49.728;9.228;2023-10-09T09:56:14;18.50;91.70
2897;DHT22;1458;49.728;9.228;2023-10-09T09:58:46;18.60;92.50
2897;DHT22;1458;49.728;9.228;2023-10-09T10:01:20;18.60;91.50
2897;DHT22;1458;49.728;9.228;2023-10-09T10:03:54;18.60;91.10
2897;DHT22;1458;49.728;9.228;2023-10-09T10:06:29;18.80;90.50
2897;DHT22;1458;49.728;9.228;2023-10-09T10:08:58;18.80;90.80
2897;DHT22;1458;49.728;9.228;2023-10-09T10:11:45;19.00;91.40
2897;DHT22;1458;49.728;9.228;2023-10-09T10:14:18;19.20;90.80
2897;DHT22;1458;49.728;9.228;2023-10-09T10:17:02;19.10;90.40
2897;DHT22;1458;49.728;9.228;2023-10-09T10:19:59;19.20;89.40
2897;DHT22;1458;49.728;9.228;2023-10-09T10:22:49;19.20;89.00
2897;DHT22;1458;49.728;9.228;2023-10-09T10:25:34;19.20;87.60
2897;DHT22;1458;49.728;9.228;2023-10-09T10:28:20;19.40;83.90
2897;DHT22;1458;49.728;9.228;2023-10-09T10:31:01;19.30;82.90
2897;DHT22;1458;49.728;9.228;2023-10-09T10:34:03;19.50;83.20
2897;DHT22;1458;49.728;9.228;2023-10-09T10:36:36;19.70;84.40
2897;DHT22;1458;49.728;9.228;2023-10-09T10:39:09;19.70;83.90
2897;DHT22;1458;49.728;9.228;2023-10-09T10:41:53;19.80;83.90
2897;DHT22;1458;49.728;9.228;2023-10-09T10:44:28;19.70;85.20
2897;DHT22;1458;49.728;9.228;2023-10-09T10:47:03;19.70;85.80
2897;DHT22;1458;49.728;9.228;2023-10-09T10:49:43;19.90;82.20
2897;DHT22;1458;49.728;9.228;2023-10-09T10:52:20;19.70;84.90
2897;DHT22;1458;49.728;9.228;2023-10-09T10:54:49;19.60;84.50
2897;DHT22;1458;49.728;9.228;2023-10-09T10:57:35;19.70;85.30
2897;DHT22;1458;49.728;9.228;2023-10-09T11:00:26;19.80;85.00
2897;DHT22;1458;49.728;9.228;2023-10-09T11:03:17;19.90;84.80
2897;DHT22;1458;49.728;9.228;2023-10-09T11:05:55;20.00;86.60
2897;DHT22;1458;49.728;9.228;2023-10-09T11:08:43;19.90;84.00
2897;DHT22;1458;49.728;9.228;2023-10-09T11:11:21;20.10;76.80
2897;DHT22;1458;49.728;9.228;2023-10-09T11:13:49;20.40;74.40
2897;DHT22;1458;49.728;9.228;2023-10-09T11:16:23;20.80;76.70
2897;DHT22;1458;49.728;9.228;2023-10-09T11:19:08;21.20;76.10
2897;DHT22;1458;49.728;9.228;2023-10-09T11:21:50;21.20;73.80
2897;DHT22;1458;49.728;9.228;2023-10-09T11:24:26;21.50;71.50
2897;DHT22;1458;49.728;9.228;2023-10-09T11:27:00;21.50;69.10
2897;DHT22;1458;49.728;9.228;2023-10-09T11:29:31;21.50;69.10
2897;DHT22;1458;49.728;9.228;2023-10-09T11:32:16;21.50;68.90
2897;DHT22;1458;49.728;9.228;2023-10-09T11:34:48;21.10;65.80
2897;DHT22;1458;49.728;9.228;2023-10-09T11:37:20;21.00;64.50
2897;DHT22;1458;49.728;9.228;2023-10-09T11:40:06;21.00;66.40
2897;DHT22;1458;49.728;9.228;2023-10-09T11:42:51;21.10;64.60
2897;DHT22;1458;49.728;9.228;2023-10-09T11:45:24;21.20;64.30
2897;DHT22;1458;49.728;9.228;2023-10-09T11:47:55;21.30;64.80
2897;DHT22;1458;49.728;9.228;2023-10-09T11:50:41;21.40;64.70
2897;DHT22;1458;49.728;9.228;2023-10-09T11:53:19;21.50;64.90
2897;DHT22;1458;49.728;9.228;2023-10-09T11:56:01;21.70;64.10
2897;DHT22;1458;49.728;9.228;2023-10-09T11:58:29;21.70;58.40
2897;DHT22;1458;49.728;9.228;2023-10-09T12:00:58;21.60;55.30
2897;DHT22;1458;49.728;9.228;2023-10-09T12:03:30;21.80;60.80
2897;DHT22;1458;49.728;9.228;2023-10-09T12:05:59;21.90;58.30
2897;DHT22;1458;49.728;9.228;2023-10-09T12:08:31;22.00;58.00
2897;DHT22;1458;49.728;9.228;2023-10-09T12:10:59;22.30;53.40
2897;DHT22;1458;49.728;9.228;2023-10-09T12:13:30;22.30;51.10
2897;DHT22;1458;49.728;9.228;2023-10-09T12:15:58;22.30;51.90
2897;DHT22;1458;49.728;9.228;2023-10-09T12:18:25;22.40;55.10
2897;DHT22;1458;49.728;9.228;2023-10-09T12:20:54;22.40;56.20
2897;DHT22;1458;49.728;9.228;2023-10-09T12:23:28;22.40;57.40
2897;DHT22;1458;49.728;9.228;2023-10-09T12:26:01;22.40;58.20
2897;DHT22;1458;49.728;9.228;2023-10-09T12:28:30;22.60;54.70
2897;DHT22;1458;49.728;9.228;2023-10-09T12:30:59;22.50;56.40
2897;DHT22;1458;49.728;9.228;2023-10-09T12:33:28;22.70;55.00
2897;DHT22;1458;49.728;9.228;2023-10-09T12:35:56;22.80;57.20
2897;DHT22;1458;49.728;9.228;2023-10-09T12:38:26;22.90;54.40
2897;DHT22;1458;49.728;9.228;2023-10-09T12:41:03;23.00;53.60
2897;DHT22;1458;49.728;9.228;2023-10-09T12:43:45;22.90;51.40
2897;DHT22;1458;49.728;9.228;2023-10-09T12:46:12;22.90;48.90
2897;DHT22;1458;49.728;9.228;2023-10-09T12:48:42;22.90;49.40
2897;DHT22;1458;49.728;9.228;2023-10-09T12:51:12;22.90;53.50
2897;DHT22;1458;49.728;9.228;2023-10-09T12:53:42;22.90;46.40
2897;DHT22;1458;49.728;9.228;2023-10-09T12:56:09;22.90;46.70
2897;DHT22;1458;49.728;9.228;2023-10-09T12:58:38;22.70;44.00
2897;DHT22;1458;49.728;9.228;2023-10-09T13:01:07;22.50;44.90
2897;DHT22;1458;49.728;9.228;2023-10-09T13:03:37;22.40;42.00
2897;DHT22;1458;49.728;9.228;2023-10-09T13:06:05;22.20;45.90
2897;DHT22;1458;49.728;9.228;2023-10-09T13:08:36;22.10;43.60
2897;DHT22;1458;49.728;9.228;2023-10-09T13:11:07;22.00;46.10
2897;DHT22;1458;49.728;9.228;2023-10-09T13:13:37;22.00;43.70
2897;DHT22;1458;49.728;9.228;2023-10-09T13:16:12;21.90;43.30
2897;DHT22;1458;49.728;9.228;2023-10-09T13:18:46;21.70;43.60
2897;DHT22;1458;49.728;9.228;2023-10-09T13:21:17;21.70;44.80
2897;DHT22;1458;49.728;9.228;2023-10-09T13:23:46;21.50;42.90
2897;DHT22;1458;49.728;9.228;2023-10-09T13:26:15;21.50;43.50
2897;DHT22;1458;49.728;9.228;2023-10-09T13:28:51;21.50;42.50
2897;DHT22;1458;49.728;9.228;2023-10-09T13:31:21;21.50;44.20
2897;DHT22;1458;49.728;9.228;2023-10-09T13:33:51;21.60;43.40
2897;DHT22;1458;49.728;9.228;2023-10-09T13:36:21;21.60;43.50
2897;DHT22;1458;49.728;9.228;2023-10-09T13:38:56;21.70;43.60
2897;DHT22;1458;49.728;9.228;2023-10-09T13:41:23;21.70;46.30
2897;DHT22;1458;49.728;9.228;2023-10-09T13:43:55;21.70;46.70
2897;DHT22;1458;49.728;9.228;2023-10-09T13:46:25;21.70;47.10
2897;DHT22;1458;49.728;9.228;2023-10-09T13:48:52;21.70;47.20
2897;DHT22;1458;49.728;9.228;2023-10-09T13:51:20;21.80;47.30
2897;DHT22;1458;49.728;9.228;2023-10-09T13:53:49;21.90;45.00
2897;DHT22;1458;49.728;9.228;2023-10-09T13:56:18;21.80;46.80
2897;DHT22;1458;49.728;9.228;2023-10-09T13:58:47;21.90;47.40
2897;DHT22;1458;49.728;9.228;2023-10-09T14:01:15;21.80;47.30
2897;DHT22;1458;49.728;9.228;2023-10-09T14:03:56;21.70;49.50
2897;DHT22;1458;49.728;9.228;2023-10-09T14:06:25;21.70;52.30
2897;DHT22;1458;49.728;9.228;2023-10-09T14:09:00;21.70;48.50
2897;DHT22;1458;49.728;9.228;2023-10-09T14:11:30;21.70;48.70
2897;DHT22;1458;49.728;9.228;2023-10-09T14:13:58;21.70;49.20
2897;DHT22;1458;49.728;9.228;2023-10-09T14:16:27;21.60;50.80
2897;DHT22;1458;49.728;9.228;2023-10-09T14:18:57;21.60;51.00
2897;DHT22;1458;49.728;9.228;2023-10-09T14:21:26;21.40;51.90
2897;DHT22;1458;49.728;9.228;2023-10-09T14:23:56;21.30;52.20
2897;DHT22;1458;49.728;9.228;2023-10-09T14:26:25;21.30;50.90
2897;DHT22;1458;49.728;9.228;2023-10-09T14:28:53;21.30;54.70
2897;DHT22;1458;49.728;9.228;2023-10-09T14:31:26;21.20;53.70
2897;DHT22;1458;49.728;9.228;2023-10-09T14:33:55;21.30;52.10
2897;DHT22;1458;49.728;9.228;2023-10-09T14:36:24;21.20;53.10
2897;DHT22;1458;49.728;9.228;2023-10-09T14:38:59;21.10;54.20
2897;DHT22;1458;49.728;9.228;2023-10-09T14:41:27;21.00;56.50
2897;DHT22;1458;49.728;9.228;2023-10-09T14:43:59;20.80;56.10
2897;DHT22;1458;49.728;9.228;2023-10-09T14:46:26;20.90;57.00
2897;DHT22;1458;49.728;9.228;2023-10-09T14:48:56;20.80;57.90
2897;DHT22;1458;49.728;9.228;2023-10-09T14:51:25;20.90;54.40
2897;DHT22;1458;49.728;9.228;2023-10-09T14:53:56;20.90;59.20
2897;DHT22;1458;49.728;9.228;2023-10-09T14:56:27;20.80;62.30
2897;DHT22;1458;49.728;9.228;2023-10-09T14:59:02;20.60;63.50
2897;DHT22;1458;49.728;9.228;2023-10-09T15:01:30;20.50;64.20
2897;DHT22;1458;49.728;9.228;2023-10-09T15:03:59;20.50;64.80
2897;DHT22;1458;49.728;9.228;2023-10-09T15:06:27;20.50;64.80
2897;DHT22;1458;49.728;9.228;2023-10-09T15:08:56;20.50;63.50
2897;DHT22;1458;49.728;9.228;2023-10-09T15:11:26;20.50;63.80
2897;DHT22;1458;49.728;9.228;2023-10-09T15:13:55;20.30;63.80
2897;DHT22;1458;49.728;9.228;2023-10-09T15:16:24;20.30;64.00
2897;DHT22;1458;49.728;9.228;2023-10-09T15:18:55;20.30;63.90
2897;DHT22;1458;49.728;9.228;2023-10-09T15:21:31;20.20;65.60
2897;DHT22;1458;49.728;9.228;2023-10-09T15:23:59;20.20;67.10
2897;DHT22;1458;49.728;9.228;2023-10-09T15:26:27;20.10;68.00
2897;DHT22;1458;49.728;9.228;2023-10-09T15:29:01;20.00;68.90
2897;DHT22;1458;49.728;9.228;2023-10-09T15:31:32;20.00;68.00
2897;DHT22;1458;49.728;9.228;2023-10-09T15:34:00;19.90;68.70
2897;DHT22;1458;49.728;9.228;2023-10-09T15:36:27;19.70;68.60
2897;DHT22;1458;49.728;9.228;2023-10-09T15:38:59;19.60;69.20
2897;DHT22;1458;49.728;9.228;2023-10-09T15:41:27;19.60;68.50
2897;DHT22;1458;49.728;9.228;2023-10-09T15:43:57;19.60;68.40
2897;DHT22;1458;49.728;9.228;2023-10-09T15:46:27;19.40;69.20
2897;DHT22;1458;49.728;9.228;2023-10-09T15:48:59;19.40;70.60
2897;DHT22;1458;49.728;9.228;2023-10-09T15:51:27;19.30;70.80
2897;DHT22;1458;49.728;9.228;2023-10-09T15:53:56;19.20;72.30
2897;DHT22;1458;49.728;9.228;2023-10-09T15:56:25;19.20;71.40
2897;DHT22;1458;49.728;9.228;2023-10-09T15:58:53;19.20;70.60
2897;DHT22;1458;49.728;9.228;2023-10-09T16:01:22;19.10;70.90
2897;DHT22;1458;49.728;9.228;2023-10-09T16:03:49;19.00;71.60
2897;DHT22;1458;49.728;9.228;2023-10-09T16:06:19;18.90;74.10
2897;DHT22;1458;49.728;9.228;2023-10-09T16:08:47;18.70;75.20
2897;DHT22;1458;49.728;9.228;2023-10-09T16:11:19;18.60;76.20
2897;DHT22;1458;49.728;9.228;2023-10-09T16:13:50;18.50;76.30
2897;DHT22;1458;49.728;9.228;2023-10-09T16:16:24;18.40;76.40
2897;DHT22;1458;49.728;9.228;2023-10-09T16:18:52;18.40;75.80
2897;DHT22;1458;49.728;9.228;2023-10-09T16:21:21;18.30;76.30
2897;DHT22;1458;49.728;9.228;2023-10-09T16:23:50;18.10;78.20
2897;DHT22;1458;49.728;9.228;2023-10-09T16:26:18;17.90;79.20
2897;DHT22;1458;49.728;9.228;2023-10-09T16:28:46;17.80;78.80
2897;DHT22;1458;49.728;9.228;2023-10-09T16:31:15;17.80;79.10
2897;DHT22;1458;49.728;9.228;2023-10-09T16:33:44;17.60;80.70
2897;DHT22;1458;49.728;9.228;2023-10-09T16:36:13;17.50;82.20
2897;DHT22;1458;49.728;9.228;2023-10-09T16:38:41;17.40;82.10
2897;DHT22;1458;49.728;9.228;2023-10-09T16:41:09;17.20;81.90
2897;DHT22;1458;49.728;9.228;2023-10-09T16:43:40;17.20;82.00
2897;DHT22;1458;49.728;9.228;2023-10-09T16:46:08;17.10;82.40
2897;DHT22;1458;49.728;9.228;2023-10-09T16:48:38;17.10;82.10